Air Navigation Services of Czech Republic
Airport: LKMT Updated:  03.12.2021 18:30:29  UTC
 METAR LKMT 03.12. 18:30 ...
METAR LKMT 031830Z 20012KT CAVOK 00/M07 Q1013 NOSIG RMK REG QNH 1006=
 TAF LKMT 03.12. 17:00 ...
TAF LKMT 031700Z 0318/0500 21010KT CAVOK      BECMG 0400/0402 21012KT      TEMPO 0402/0500 22016G34KT      PROB30 TEMPO 0413/0416 22018G39KT      BECMG 0414/0416 9999 OVC017      PROB30 TEMPO 0416/0500 -SNRA OVC012=